createdAt,value
2023-03-03T00:03:55.041Z,97828.25
2023-03-03T00:08:59.968Z,97816.44
2023-03-03T00:14:03.418Z,97825.13
2023-03-03T00:19:15.649Z,97829.94
2023-03-03T00:24:22.956Z,97835.63
2023-03-03T00:29:31.875Z,97819.16
2023-03-03T00:34:35.790Z,97813.44
2023-03-03T00:39:40.764Z,97807.72
2023-03-03T00:44:44.869Z,97798.56
2023-03-03T00:49:48.001Z,97800.81
2023-03-03T00:54:52.598Z,97799.53
2023-03-03T00:59:55.888Z,97794.66
2023-03-03T01:04:59.246Z,97804.00
2023-03-03T01:10:03.791Z,97797.88
2023-03-03T01:15:08.337Z,97802.41
2023-03-03T01:20:14.258Z,97807.91
2023-03-03T01:25:19.161Z,97810.41
2023-03-03T01:30:22.640Z,97818.69
2023-03-03T01:35:26.252Z,97814.09
2023-03-03T01:40:36.757Z,97810.00
2023-03-03T01:46:06.870Z,97806.16
2023-03-03T01:51:20.173Z,97805.75
2023-03-03T01:56:25.914Z,97811.25
2023-03-03T02:01:31.094Z,97815.03
2023-03-03T02:06:39.050Z,97808.25
2023-03-03T02:11:45.789Z,97811.06
2023-03-03T02:16:49.045Z,97812.88
2023-03-03T02:21:53.282Z,97821.16
2023-03-03T02:26:58.355Z,97818.84
2023-03-03T02:32:02.160Z,97826.59
2023-03-03T02:37:05.491Z,97818.16
2023-03-03T02:42:17.267Z,97812.72
2023-03-03T02:47:25.815Z,97809.28
2023-03-03T02:52:29.303Z,97808.66
2023-03-03T02:57:33.830Z,97815.50
2023-03-03T03:02:37.259Z,97800.94
2023-03-03T03:07:40.746Z,97810.59
2023-03-03T03:12:45.907Z,97802.84
2023-03-03T03:17:50.203Z,97802.13
2023-03-03T03:22:53.736Z,97791.44
2023-03-03T03:27:58.616Z,97798.84
2023-03-03T03:33:02.085Z,97805.25
2023-03-03T03:38:05.569Z,97805.25
2023-03-03T03:43:10.355Z,97822.41
2023-03-03T03:48:13.752Z,97804.72
2023-03-03T03:53:17.726Z,97811.88
2023-03-03T03:58:23.313Z,97807.63
2023-03-03T04:03:35.229Z,97813.06
2023-03-03T04:08:41.992Z,97811.47
2023-03-03T04:13:47.810Z,97812.97
2023-03-03T04:18:51.161Z,97816.81
2023-03-03T04:23:54.595Z,97812.94
2023-03-03T04:29:00.236Z,97817.84
2023-03-03T04:34:03.489Z,97804.41
2023-03-03T04:39:07.229Z,97803.38
2023-03-03T04:44:12.161Z,97804.69
2023-03-03T04:49:15.609Z,97802.34
2023-03-03T04:54:19.928Z,97819.19
2023-03-03T04:59:24.643Z,97822.44
2023-03-03T05:04:28.022Z,97843.72
2023-03-03T05:09:32.537Z,97832.19
2023-03-03T05:14:38.059Z,97826.78
2023-03-03T05:19:41.620Z,97838.13
2023-03-03T05:24:49.204Z,97840.47
2023-03-03T05:29:54.001Z,97862.09
2023-03-03T05:34:57.290Z,97860.09
2023-03-03T05:40:00.908Z,97854.44
2023-03-03T05:45:06.252Z,97864.00
2023-03-03T05:50:12.236Z,97854.91
2023-03-03T05:55:15.618Z,97857.53
2023-03-03T06:00:21.488Z,97869.91
2023-03-03T06:05:24.695Z,97883.38
2023-03-03T06:10:28.364Z,97889.28
2023-03-03T06:15:36.388Z,97898.69
2023-03-03T06:20:39.850Z,97902.94
2023-03-03T06:25:43.232Z,97896.44
2023-03-03T06:30:53.971Z,97892.13
2023-03-03T06:35:57.556Z,97900.56
2023-03-03T06:41:02.207Z,97911.50
2023-03-03T06:46:07.459Z,97917.31
2023-03-03T06:51:23.648Z,97925.28
2023-03-03T06:56:28.152Z,97920.72
2023-03-03T07:01:37.396Z,97917.22
2023-03-03T07:06:40.496Z,97923.97
2023-03-03T07:11:46.219Z,97933.34
2023-03-03T07:16:57.795Z,97926.78
2023-03-03T07:22:05.559Z,97918.53
2023-03-03T07:27:13.674Z,97922.91
2023-03-03T07:32:27.359Z,97915.09
2023-03-03T07:37:36.276Z,97917.78
2023-03-03T07:42:41.897Z,97920.47
2023-03-03T07:48:05.513Z,97928.31
2023-03-03T07:53:16.047Z,97923.59
2023-03-03T07:58:25.263Z,97927.63
2023-03-03T08:03:29.889Z,97939.91
2023-03-03T08:08:37.158Z,97957.88
2023-03-03T08:13:43.092Z,97958.72
2023-03-03T08:18:49.582Z,97953.94
2023-03-03T08:23:53.803Z,97970.38
2023-03-03T08:28:57.107Z,97965.66
2023-03-03T08:34:03.516Z,97972.56
2023-03-03T08:39:07.173Z,97980.78
2023-03-03T08:44:10.495Z,97975.94
2023-03-03T08:49:15.207Z,97995.41
2023-03-03T08:54:18.364Z,97995.44
2023-03-03T08:59:22.405Z,98006.34
2023-03-03T09:04:27.628Z,98015.47
2023-03-03T09:09:30.967Z,98005.66
2023-03-03T09:14:34.196Z,98008.06
2023-03-03T09:19:38.906Z,98003.34
2023-03-03T09:24:43.906Z,97995.34
2023-03-03T09:29:47.177Z,98004.81
2023-03-03T09:34:52.184Z,98012.47
2023-03-03T09:39:57.525Z,98034.28
2023-03-03T09:45:37.397Z,98033.03
2023-03-03T09:50:54.102Z,98035.56
2023-03-03T09:56:04.283Z,98025.59
2023-03-03T10:01:30.321Z,98017.50
2023-03-03T10:06:39.041Z,98015.09
2023-03-03T10:11:50.406Z,98012.22
2023-03-03T10:17:19.331Z,98024.94
2023-03-03T10:22:29.808Z,98022.28
2023-03-03T10:27:49.612Z,98024.59
2023-03-03T10:32:59.415Z,98026.03
2023-03-03T10:38:35.472Z,98011.03
2023-03-03T10:43:57.961Z,98017.47
2023-03-03T10:49:23.247Z,98012.47
2023-03-03T10:54:44.676Z,98020.88
2023-03-03T10:59:59.120Z,98008.81
2023-03-03T11:05:24.105Z,98014.94
2023-03-03T11:10:55.211Z,98015.81
2023-03-03T11:16:15.224Z,98019.19
2023-03-03T11:21:25.943Z,98008.94
2023-03-03T11:26:58.697Z,98024.09
2023-03-03T11:32:12.505Z,98013.13
2023-03-03T11:37:23.205Z,98017.66
2023-03-03T11:42:40.984Z,98020.16
2023-03-03T11:47:53.711Z,98008.31
2023-03-03T11:53:10.333Z,98013.84
2023-03-03T11:58:20.638Z,98006.75
2023-03-03T12:03:36.340Z,98012.28
2023-03-03T12:09:10.687Z,98010.16
2023-03-03T12:14:28.142Z,98002.22
2023-03-03T12:19:36.866Z,98004.31
2023-03-03T12:24:57.480Z,98006.88
2023-03-03T12:30:13.340Z,97991.94
2023-03-03T12:35:25.559Z,97991.38
2023-03-03T12:40:35.132Z,97986.78
2023-03-03T12:45:49.269Z,97987.66
2023-03-03T12:51:03.585Z,97976.63
2023-03-03T12:56:09.420Z,97977.81
2023-03-03T13:01:28.504Z,97976.16
2023-03-03T13:06:35.205Z,97967.28
2023-03-03T13:12:02.001Z,97972.06
2023-03-03T13:17:17.007Z,97980.03
2023-03-03T13:22:33.250Z,97975.22
2023-03-03T13:27:41.418Z,97989.22
2023-03-03T13:32:54.117Z,97991.56
2023-03-03T13:37:58.967Z,97983.19
2023-03-03T13:43:06.558Z,97981.88
2023-03-03T13:48:28.274Z,97984.69
2023-03-03T13:53:48.648Z,97979.78
2023-03-03T13:59:02.638Z,97981.66
2023-03-03T14:04:17.217Z,97975.69
2023-03-03T14:09:33.101Z,97967.09
2023-03-03T14:14:48.762Z,97956.50
2023-03-03T14:20:03.313Z,97950.50
2023-03-03T14:25:09.919Z,97959.31
2023-03-03T14:30:31.087Z,97951.66
2023-03-03T14:35:38.113Z,97945.09
2023-03-03T14:40:45.425Z,97946.78
2023-03-03T14:45:48.787Z,97939.25
2023-03-03T14:50:54.840Z,97937.28
2023-03-03T14:56:16.864Z,97939.84
2023-03-03T15:01:25.556Z,97931.28
2023-03-03T15:06:41.547Z,97916.75
2023-03-03T15:11:45.653Z,97919.50
2023-03-03T15:16:48.960Z,97916.22
2023-03-03T15:22:04.954Z,97907.09
2023-03-03T15:27:13.670Z,97908.25
2023-03-03T15:32:24.266Z,97911.22
2023-03-03T15:37:43.116Z,97897.25
2023-03-03T15:42:50.321Z,97899.44
2023-03-03T15:48:15.130Z,97889.06
2023-03-03T15:53:56.377Z,97897.69
2023-03-03T15:59:42.321Z,97885.00
2023-03-03T16:04:54.205Z,97894.47
2023-03-03T16:10:06.230Z,97902.53
2023-03-03T16:15:23.991Z,97906.47
2023-03-03T16:20:34.493Z,97905.84
2023-03-03T16:25:56.026Z,97905.78
2023-03-03T16:31:10.592Z,97917.88
2023-03-03T16:36:24.368Z,97927.84
2023-03-03T16:41:34.657Z,97929.38
2023-03-03T16:46:42.606Z,97923.22
2023-03-03T16:51:52.930Z,97923.19
2023-03-03T16:57:06.852Z,97921.22
2023-03-03T17:02:28.619Z,97930.00
2023-03-03T17:07:44.801Z,97932.69
2023-03-03T17:12:58.226Z,97935.91
2023-03-03T17:18:13.641Z,97948.56
2023-03-03T17:23:33.327Z,97958.88
2023-03-03T17:28:50.577Z,97958.31
2023-03-03T17:34:17.325Z,97975.84
2023-03-03T17:39:48.649Z,97976.75
2023-03-03T17:45:00.745Z,97977.81
2023-03-03T17:50:14.296Z,97973.53
2023-03-03T17:55:40.322Z,97973.50
2023-03-03T18:00:54.383Z,97973.03
2023-03-03T18:06:41.194Z,97968.81
2023-03-03T18:12:00.291Z,97970.94
2023-03-03T18:17:21.546Z,97968.53
2023-03-03T18:22:33.552Z,97978.47
2023-03-03T18:27:39.605Z,97975.06
2023-03-03T18:32:44.577Z,97982.59
2023-03-03T18:37:49.901Z,97985.25
2023-03-03T18:42:54.043Z,97981.38
2023-03-03T18:48:06.457Z,97985.53
2023-03-03T18:53:22.507Z,97988.88
2023-03-03T18:58:37.445Z,97996.19
2023-03-03T19:04:04.519Z,97995.94
2023-03-03T19:09:13.036Z,98000.38
2023-03-03T19:14:25.767Z,98003.94
2023-03-03T19:19:34.345Z,97997.53
2023-03-03T19:24:39.238Z,97995.91
2023-03-03T19:30:22.731Z,98003.31
2023-03-03T19:35:34.263Z,98003.38
2023-03-03T19:40:50.208Z,98003.06
2023-03-03T19:46:18.018Z,98002.56
2023-03-03T19:51:35.101Z,98008.25
2023-03-03T19:56:47.124Z,98001.72
2023-03-03T20:02:12.213Z,98007.00
2023-03-03T20:07:29.128Z,97997.69
2023-03-03T20:12:53.248Z,98002.97
2023-03-03T20:18:15.701Z,97996.34
2023-03-03T20:23:24.442Z,97997.09
2023-03-03T20:28:49.526Z,97989.03
2023-03-03T20:34:06.418Z,97992.84
2023-03-03T20:39:13.019Z,97991.56
2023-03-03T20:44:30.201Z,97989.88
2023-03-03T20:49:56.793Z,97995.09
2023-03-03T20:55:11.051Z,97998.03
2023-03-03T21:00:23.492Z,98001.38
2023-03-03T21:05:28.060Z,97996.88
2023-03-03T21:10:36.032Z,97999.56
2023-03-03T21:15:40.763Z,97997.31
2023-03-03T21:20:44.027Z,98010.63
2023-03-03T21:25:52.442Z,98006.88
2023-03-03T21:31:18.447Z,98006.75
2023-03-03T21:36:24.614Z,98011.28
2023-03-03T21:41:27.955Z,98015.88
2023-03-03T21:46:32.984Z,98029.41
2023-03-03T21:51:36.709Z,98020.03
2023-03-03T21:56:42.328Z,98009.56
2023-03-03T22:01:48.140Z,98010.13
2023-03-03T22:06:52.840Z,97998.13
2023-03-03T22:11:56.417Z,97999.72
2023-03-03T22:17:01.509Z,97994.19
2023-03-03T22:22:04.872Z,97993.25
2023-03-03T22:27:09.221Z,97990.66
2023-03-03T22:32:16.687Z,97982.66
2023-03-03T22:37:19.976Z,97974.19
2023-03-03T22:42:27.068Z,97974.16
2023-03-03T22:47:32.630Z,97965.56
2023-03-03T22:52:36.040Z,97957.69
2023-03-03T22:57:40.429Z,97947.81
2023-03-03T23:02:44.941Z,97949.50
2023-03-03T23:07:48.053Z,97949.31
2023-03-03T23:12:51.282Z,97945.00
2023-03-03T23:17:57.157Z,97937.22
2023-03-03T23:23:00.525Z,97923.94
2023-03-03T23:28:04.160Z,97926.59
2023-03-03T23:33:09.272Z,97930.16
2023-03-03T23:38:15.946Z,97919.78
2023-03-03T23:43:19.328Z,97922.66
2023-03-03T23:48:26.260Z,97916.63
2023-03-03T23:53:29.505Z,97917.09
2023-03-03T23:58:32.675Z,97915.59
